createdAt,value
2022-11-15T00:04:37.554Z,2.62
2022-11-15T00:09:43.397Z,2.49
2022-11-15T00:14:49.489Z,2.35
2022-11-15T00:19:51.866Z,2.27
2022-11-15T00:24:53.751Z,2.30
2022-11-15T00:29:56.796Z,2.19
2022-11-15T00:34:59.167Z,2.03
2022-11-15T00:40:00.903Z,1.98
2022-11-15T00:45:04.759Z,2.01
2022-11-15T00:50:12.958Z,1.81
2022-11-15T00:55:18.563Z,1.68
2022-11-15T01:00:21.704Z,1.66
2022-11-15T01:05:24.066Z,1.74
2022-11-15T01:10:26.165Z,1.64
2022-11-15T01:15:29.612Z,1.61
2022-11-15T01:20:31.739Z,1.51
2022-11-15T01:25:33.875Z,1.41
2022-11-15T01:30:38.446Z,1.58
2022-11-15T01:35:40.967Z,1.60
2022-11-15T01:40:43.114Z,1.57
2022-11-15T01:45:50.163Z,1.51
2022-11-15T01:50:52.387Z,1.44
2022-11-15T01:55:55.118Z,1.46
2022-11-15T02:00:58.238Z,1.54
2022-11-15T02:06:00.724Z,1.55
2022-11-15T02:11:05.436Z,1.69
2022-11-15T02:16:19.352Z,1.73
2022-11-15T02:21:34.832Z,1.73
2022-11-15T02:27:10.092Z,1.89
2022-11-15T02:32:20.590Z,2.03
2022-11-15T02:37:31.998Z,2.11
2022-11-15T02:42:38.158Z,2.11
2022-11-15T02:47:44.634Z,2.09
2022-11-15T02:52:47.613Z,2.36
2022-11-15T02:57:56.844Z,2.56
2022-11-15T03:03:20.632Z,3.02
2022-11-15T03:08:32.610Z,3.36
2022-11-15T03:13:40.699Z,3.42
2022-11-15T03:18:47.360Z,3.45
2022-11-15T03:23:52.224Z,3.39
2022-11-15T03:28:58.853Z,3.36
2022-11-15T03:34:06.410Z,3.27
2022-11-15T03:39:10.198Z,3.30
2022-11-15T03:44:17.761Z,3.38
2022-11-15T03:49:26.978Z,3.35
2022-11-15T03:54:29.393Z,3.34
2022-11-15T03:59:31.679Z,3.23
2022-11-15T04:04:35.273Z,3.21
2022-11-15T04:09:37.134Z,3.21
2022-11-15T04:14:39.218Z,3.39
2022-11-15T04:19:42.807Z,3.70
2022-11-15T04:24:45.185Z,3.72
2022-11-15T04:29:47.494Z,3.72
2022-11-15T04:34:50.962Z,3.81
2022-11-15T04:39:53.095Z,3.79
2022-11-15T04:44:55.144Z,3.67
2022-11-15T04:49:58.695Z,3.61
2022-11-15T04:55:06.735Z,3.49
2022-11-15T05:00:14.100Z,3.27
2022-11-15T05:05:17.869Z,3.15
2022-11-15T05:10:20.143Z,3.01
2022-11-15T05:15:22.370Z,2.92
2022-11-15T05:20:25.709Z,2.72
2022-11-15T05:25:28.576Z,2.65
2022-11-15T05:30:31.567Z,2.49
2022-11-15T05:35:39.969Z,2.51
2022-11-15T05:40:42.236Z,2.57
2022-11-15T05:45:44.116Z,2.63
2022-11-15T05:50:48.693Z,2.62
2022-11-15T05:55:51.176Z,2.61
2022-11-15T06:00:53.128Z,2.54
2022-11-15T06:05:57.614Z,2.52
2022-11-15T06:11:04.955Z,2.43
2022-11-15T06:16:07.373Z,2.51
2022-11-15T06:21:10.785Z,2.45
2022-11-15T06:26:12.806Z,2.41
2022-11-15T06:31:15.115Z,2.39
2022-11-15T06:36:18.626Z,2.30
2022-11-15T06:41:20.731Z,2.41
2022-11-15T06:46:22.921Z,2.44
2022-11-15T06:51:26.451Z,2.50
2022-11-15T06:56:28.193Z,2.51
2022-11-15T07:01:30.656Z,2.51
2022-11-15T07:06:34.318Z,2.70
2022-11-15T07:11:36.569Z,2.79
2022-11-15T07:16:38.632Z,2.88
2022-11-15T07:21:42.162Z,3.00
2022-11-15T07:26:44.496Z,3.08
2022-11-15T07:31:46.644Z,3.14
2022-11-15T07:36:49.944Z,3.20
2022-11-15T07:41:51.948Z,3.28
2022-11-15T07:46:54.205Z,3.61
2022-11-15T07:51:57.567Z,3.83
2022-11-15T07:57:04.042Z,3.99
2022-11-15T08:02:10.531Z,4.20
2022-11-15T08:07:14.475Z,4.41
2022-11-15T08:12:16.649Z,4.66
2022-11-15T08:17:18.823Z,4.83
2022-11-15T08:22:22.519Z,5.11
2022-11-15T08:27:24.919Z,5.51
2022-11-15T08:32:27.109Z,5.71
2022-11-15T08:37:30.707Z,6.05
2022-11-15T08:42:32.458Z,6.42
2022-11-15T08:47:35.389Z,6.67
2022-11-15T08:52:38.848Z,6.89
2022-11-15T08:57:41.293Z,7.16
2022-11-15T09:02:43.397Z,7.43
2022-11-15T09:07:47.096Z,7.68
2022-11-15T09:12:49.361Z,7.82
2022-11-15T09:17:51.493Z,8.14
2022-11-15T09:22:55.003Z,8.35
2022-11-15T09:27:58.178Z,8.60
2022-11-15T09:33:00.336Z,8.89
2022-11-15T09:38:04.695Z,9.26
2022-11-15T09:43:21.175Z,9.63
2022-11-15T09:48:43.922Z,10.32
2022-11-15T09:59:26.018Z,18.83
2022-11-15T10:04:29.051Z,19.50
2022-11-15T10:09:39.209Z,18.26
2022-11-15T10:14:43.000Z,23.86
2022-11-15T10:19:56.570Z,20.47
2022-11-15T10:25:15.936Z,20.83
2022-11-15T10:30:19.651Z,20.30
2022-11-15T10:35:26.079Z,21.10
2022-11-15T10:40:29.605Z,20.11
2022-11-15T10:45:34.131Z,22.21
2022-11-15T10:50:35.805Z,20.20
2022-11-15T10:55:41.813Z,20.24
2022-11-15T11:00:43.856Z,22.42
2022-11-15T11:05:46.079Z,23.21
2022-11-15T11:11:01.339Z,22.70
2022-11-15T11:16:20.571Z,23.25
2022-11-15T11:21:36.778Z,17.58
2022-11-15T11:26:57.103Z,15.25
2022-11-15T11:32:08.976Z,15.47
2022-11-15T11:37:19.319Z,14.89
2022-11-15T11:42:34.944Z,14.66
2022-11-15T11:47:41.465Z,14.30
2022-11-15T11:52:54.021Z,14.63
2022-11-15T11:58:06.004Z,14.69
2022-11-15T12:03:13.910Z,14.94
2022-11-15T12:08:30.521Z,14.93
2022-11-15T12:13:35.947Z,15.06
2022-11-15T12:18:38.358Z,15.37
2022-11-15T12:23:45.171Z,15.28
2022-11-15T12:29:06.919Z,15.06
2022-11-15T12:34:41.671Z,15.24
2022-11-15T12:40:06.221Z,15.24
2022-11-15T12:45:27.751Z,15.44
2022-11-15T12:50:55.133Z,15.26
2022-11-15T12:56:19.093Z,15.33
2022-11-15T13:02:11.781Z,15.29
2022-11-15T13:07:58.781Z,15.28
2022-11-15T13:13:02.629Z,15.11
2022-11-15T13:18:41.235Z,15.05
2022-11-15T13:23:46.767Z,15.05
2022-11-15T13:28:50.866Z,14.96
2022-11-15T13:33:56.123Z,14.96
2022-11-15T13:39:03.080Z,14.86
2022-11-15T13:44:19.986Z,14.80
2022-11-15T13:49:30.967Z,14.58
2022-11-15T13:54:37.745Z,14.38
2022-11-15T13:59:47.719Z,14.18
2022-11-15T14:04:52.863Z,14.09
2022-11-15T14:09:56.389Z,14.05
2022-11-15T14:14:59.383Z,13.80
2022-11-15T14:20:01.907Z,13.50
2022-11-15T14:25:16.471Z,13.25
2022-11-15T14:30:19.097Z,13.06
2022-11-15T14:35:23.556Z,12.78
2022-11-15T14:40:27.454Z,12.54
2022-11-15T14:45:29.879Z,12.21
2022-11-15T14:50:34.034Z,11.96
2022-11-15T14:55:37.481Z,11.97
2022-11-15T15:00:41.863Z,11.86
2022-11-15T15:05:45.278Z,11.51
2022-11-15T15:10:48.975Z,11.40
2022-11-15T15:15:52.034Z,11.32
2022-11-15T15:20:57.338Z,10.94
2022-11-15T15:26:00.919Z,10.66
2022-11-15T15:31:03.092Z,10.43
2022-11-15T15:36:05.491Z,10.39
2022-11-15T15:41:11.961Z,10.19
2022-11-15T15:46:16.536Z,10.07
2022-11-15T15:51:20.693Z,10.08
2022-11-15T15:56:25.093Z,9.86
2022-11-15T16:01:27.535Z,9.70
2022-11-15T16:06:36.978Z,9.74
2022-11-15T16:11:40.511Z,9.67
2022-11-15T16:16:42.278Z,9.45
2022-11-15T16:21:44.377Z,9.38
2022-11-15T16:26:48.807Z,9.24
2022-11-15T16:31:50.907Z,9.08
2022-11-15T16:36:54.218Z,9.00
2022-11-15T16:41:57.685Z,8.82
2022-11-15T16:47:00.896Z,9.07
2022-11-15T16:52:02.600Z,9.11
2022-11-15T16:57:05.847Z,9.12
2022-11-15T17:02:12.172Z,9.08
2022-11-15T17:07:13.965Z,9.13
2022-11-15T17:12:17.109Z,9.10
2022-11-15T17:17:19.021Z,9.06
2022-11-15T17:22:21.242Z,9.15
2022-11-15T17:27:24.754Z,9.09
2022-11-15T17:32:26.743Z,8.99
2022-11-15T17:37:28.582Z,8.97
2022-11-15T17:42:32.017Z,8.91
2022-11-15T17:47:34.010Z,8.80
2022-11-15T17:52:35.723Z,8.71
2022-11-15T17:57:38.961Z,8.64
2022-11-15T18:02:40.976Z,8.49
2022-11-15T18:07:42.780Z,8.40
2022-11-15T18:12:45.844Z,8.12
2022-11-15T18:17:47.684Z,8.12
2022-11-15T18:22:52.545Z,8.06
2022-11-15T18:27:56.016Z,7.96
2022-11-15T18:32:58.227Z,7.78
2022-11-15T18:37:59.968Z,7.69
2022-11-15T18:43:03.804Z,7.59
2022-11-15T18:48:06.113Z,7.55
2022-11-15T18:53:07.925Z,7.54
2022-11-15T18:58:11.059Z,7.43
2022-11-15T19:03:12.864Z,7.34
2022-11-15T19:08:14.588Z,7.34
2022-11-15T19:13:18.414Z,7.26
2022-11-15T19:18:20.755Z,7.19
2022-11-15T19:23:23.156Z,7.15
2022-11-15T19:28:27.111Z,7.11
2022-11-15T19:33:28.785Z,7.13
2022-11-15T19:38:31.176Z,7.07
2022-11-15T19:43:35.580Z,7.05
2022-11-15T19:48:38.179Z,7.03
2022-11-15T19:53:40.703Z,6.86
2022-11-15T19:58:45.675Z,6.82
2022-11-15T20:03:48.177Z,6.73
2022-11-15T20:08:50.391Z,6.71
2022-11-15T20:13:56.455Z,6.65
2022-11-15T20:18:58.350Z,6.60
2022-11-15T20:24:00.267Z,6.56
2022-11-15T20:29:04.038Z,6.54
2022-11-15T20:34:06.696Z,6.51
2022-11-15T20:39:09.174Z,6.35
2022-11-15T20:44:13.020Z,6.37
2022-11-15T20:49:14.841Z,6.44
2022-11-15T20:54:16.910Z,6.44
2022-11-15T20:59:20.128Z,6.31
2022-11-15T21:04:23.438Z,6.31
2022-11-15T21:09:25.773Z,6.34
2022-11-15T21:14:29.202Z,6.34
2022-11-15T21:19:35.586Z,6.33
2022-11-15T21:24:39.053Z,6.36
2022-11-15T21:29:42.567Z,6.37
2022-11-15T21:34:44.692Z,6.42
2022-11-15T21:39:46.762Z,6.46
2022-11-15T21:44:50.513Z,6.42
2022-11-15T21:49:52.335Z,6.46
2022-11-15T21:54:54.374Z,6.49
2022-11-15T21:59:57.427Z,6.46
2022-11-15T22:04:59.773Z,6.45
2022-11-15T22:10:01.649Z,6.47
2022-11-15T22:15:05.783Z,6.45
2022-11-15T22:20:29.967Z,6.33
2022-11-15T22:25:31.181Z,6.28
2022-11-15T22:30:34.838Z,6.28
2022-11-15T22:35:38.417Z,6.22
2022-11-15T22:40:40.409Z,6.13
2022-11-15T22:45:52.134Z,6.02
2022-11-15T22:50:54.842Z,5.96
2022-11-15T22:55:58.553Z,5.92
2022-11-15T23:01:04.114Z,5.87
2022-11-15T23:06:07.665Z,5.77
2022-11-15T23:11:11.433Z,5.80
2022-11-15T23:16:14.890Z,5.84
2022-11-15T23:21:18.858Z,5.84
2022-11-15T23:26:21.483Z,5.77
2022-11-15T23:31:25.213Z,5.77
2022-11-15T23:36:29.033Z,5.73
2022-11-15T23:41:31.166Z,5.79
2022-11-15T23:46:35.197Z,5.77
2022-11-15T23:51:37.348Z,5.75
2022-11-15T23:56:39.878Z,5.77
